sensor_id;sensor_type;location;lat;lon;timestamp;P1;durP1;ratioP1;P2;durP2;ratioP2
67715;SDS011;54508;43.238;25.306;2023-11-21T00:02:11;3.30;;;2.30;;
67715;SDS011;54508;43.238;25.306;2023-11-21T00:04:37;3.07;;;2.37;;
67715;SDS011;54508;43.238;25.306;2023-11-21T00:07:02;3.78;;;2.60;;
67715;SDS011;54508;43.238;25.306;2023-11-21T00:09:28;3.23;;;2.30;;
67715;SDS011;54508;43.238;25.306;2023-11-21T00:11:54;4.10;;;2.87;;
67715;SDS011;54508;43.238;25.306;2023-11-21T00:14:19;3.85;;;2.70;;
67715;SDS011;54508;43.238;25.306;2023-11-21T00:16:44;3.80;;;2.67;;
67715;SDS011;54508;43.238;25.306;2023-11-21T00:19:10;3.33;;;2.43;;
67715;SDS011;54508;43.238;25.306;2023-11-21T00:21:36;3.15;;;2.63;;
67715;SDS011;54508;43.238;25.306;2023-11-21T00:24:02;3.40;;;2.50;;
67715;SDS011;54508;43.238;25.306;2023-11-21T00:26:28;3.72;;;2.35;;
67715;SDS011;54508;43.238;25.306;2023-11-21T00:28:53;4.17;;;2.80;;
67715;SDS011;54508;43.238;25.306;2023-11-21T00:31:19;3.10;;;2.73;;
67715;SDS011;54508;43.238;25.306;2023-11-21T00:33:44;3.95;;;2.65;;
67715;SDS011;54508;43.238;25.306;2023-11-21T00:36:09;4.17;;;2.97;;
67715;SDS011;54508;43.238;25.306;2023-11-21T00:38:36;3.65;;;2.85;;
67715;SDS011;54508;43.238;25.306;2023-11-21T00:41:03;3.88;;;2.97;;
67715;SDS011;54508;43.238;25.306;2023-11-21T00:43:28;4.00;;;2.90;;
67715;SDS011;54508;43.238;25.306;2023-11-21T00:45:54;3.67;;;2.77;;
67715;SDS011;54508;43.238;25.306;2023-11-21T00:48:19;3.57;;;2.77;;
67715;SDS011;54508;43.238;25.306;2023-11-21T00:50:45;3.17;;;2.80;;
67715;SDS011;54508;43.238;25.306;2023-11-21T00:53:10;4.25;;;3.10;;
67715;SDS011;54508;43.238;25.306;2023-11-21T00:55:38;3.65;;;2.88;;
67715;SDS011;54508;43.238;25.306;2023-11-21T00:58:06;3.63;;;2.63;;
67715;SDS011;54508;43.238;25.306;2023-11-21T01:00:33;4.18;;;2.85;;
67715;SDS011;54508;43.238;25.306;2023-11-21T01:02:59;4.65;;;2.92;;
67715;SDS011;54508;43.238;25.306;2023-11-21T01:05:25;4.10;;;2.78;;
67715;SDS011;54508;43.238;25.306;2023-11-21T01:07:56;4.13;;;2.95;;
67715;SDS011;54508;43.238;25.306;2023-11-21T01:10:21;3.72;;;2.40;;
67715;SDS011;54508;43.238;25.306;2023-11-21T01:12:46;3.17;;;2.43;;
67715;SDS011;54508;43.238;25.306;2023-11-21T01:15:13;3.80;;;2.72;;
67715;SDS011;54508;43.238;25.306;2023-11-21T01:17:38;3.77;;;2.67;;
67715;SDS011;54508;43.238;25.306;2023-11-21T01:20:04;4.78;;;2.60;;
67715;SDS011;54508;43.238;25.306;2023-11-21T01:22:36;2.90;;;2.47;;
67715;SDS011;54508;43.238;25.306;2023-11-21T01:25:01;3.58;;;2.80;;
67715;SDS011;54508;43.238;25.306;2023-11-21T01:27:29;3.95;;;2.97;;
67715;SDS011;54508;43.238;25.306;2023-11-21T01:29:55;4.82;;;2.95;;
67715;SDS011;54508;43.238;25.306;2023-11-21T01:32:20;3.73;;;2.47;;
67715;SDS011;54508;43.238;25.306;2023-11-21T01:34:45;3.33;;;2.40;;
67715;SDS011;54508;43.238;25.306;2023-11-21T01:37:12;3.90;;;2.60;;
67715;SDS011;54508;43.238;25.306;2023-11-21T01:39:38;3.03;;;2.35;;
67715;SDS011;54508;43.238;25.306;2023-11-21T01:42:04;2.93;;;2.30;;
67715;SDS011;54508;43.238;25.306;2023-11-21T01:44:30;3.97;;;2.42;;
67715;SDS011;54508;43.238;25.306;2023-11-21T01:46:55;3.40;;;2.33;;
67715;SDS011;54508;43.238;25.306;2023-11-21T01:49:22;4.07;;;2.65;;
67715;SDS011;54508;43.238;25.306;2023-11-21T01:51:48;3.50;;;2.43;;
67715;SDS011;54508;43.238;25.306;2023-11-21T01:54:17;4.47;;;2.65;;
67715;SDS011;54508;43.238;25.306;2023-11-21T01:56:47;3.50;;;2.00;;
67715;SDS011;54508;43.238;25.306;2023-11-21T01:59:14;3.60;;;2.17;;
67715;SDS011;54508;43.238;25.306;2023-11-21T02:01:43;3.50;;;2.10;;
67715;SDS011;54508;43.238;25.306;2023-11-21T02:04:09;4.15;;;2.45;;
67715;SDS011;54508;43.238;25.306;2023-11-21T02:06:34;2.67;;;2.20;;
67715;SDS011;54508;43.238;25.306;2023-11-21T02:09:00;3.92;;;2.20;;
67715;SDS011;54508;43.238;25.306;2023-11-21T02:11:25;2.73;;;2.03;;
67715;SDS011;54508;43.238;25.306;2023-11-21T02:13:52;3.65;;;2.28;;
67715;SDS011;54508;43.238;25.306;2023-11-21T02:16:19;3.20;;;2.03;;
67715;SDS011;54508;43.238;25.306;2023-11-21T02:18:46;5.22;;;2.80;;
67715;SDS011;54508;43.238;25.306;2023-11-21T02:21:13;3.57;;;2.10;;
67715;SDS011;54508;43.238;25.306;2023-11-21T02:23:39;2.95;;;2.20;;
67715;SDS011;54508;43.238;25.306;2023-11-21T02:26:09;4.03;;;2.45;;
67715;SDS011;54508;43.238;25.306;2023-11-21T02:28:35;3.83;;;2.28;;
67715;SDS011;54508;43.238;25.306;2023-11-21T02:31:01;2.63;;;2.33;;
67715;SDS011;54508;43.238;25.306;2023-11-21T02:33:28;3.45;;;2.15;;
67715;SDS011;54508;43.238;25.306;2023-11-21T02:35:53;3.20;;;2.27;;
67715;SDS011;54508;43.238;25.306;2023-11-21T02:38:20;3.20;;;2.33;;
67715;SDS011;54508;43.238;25.306;2023-11-21T02:40:46;3.60;;;2.30;;
67715;SDS011;54508;43.238;25.306;2023-11-21T02:43:11;2.63;;;2.27;;
67715;SDS011;54508;43.238;25.306;2023-11-21T02:45:37;3.30;;;2.35;;
67715;SDS011;54508;43.238;25.306;2023-11-21T02:48:02;3.23;;;2.43;;
67715;SDS011;54508;43.238;25.306;2023-11-21T02:50:28;3.67;;;2.75;;
67715;SDS011;54508;43.238;25.306;2023-11-21T02:52:55;2.95;;;2.63;;
67715;SDS011;54508;43.238;25.306;2023-11-21T02:55:22;3.00;;;2.65;;
67715;SDS011;54508;43.238;25.306;2023-11-21T02:57:50;4.18;;;2.70;;
67715;SDS011;54508;43.238;25.306;2023-11-21T03:00:15;3.65;;;2.80;;
67715;SDS011;54508;43.238;25.306;2023-11-21T03:02:42;3.53;;;2.58;;
67715;SDS011;54508;43.238;25.306;2023-11-21T03:05:08;4.15;;;2.95;;
67715;SDS011;54508;43.238;25.306;2023-11-21T03:07:34;3.35;;;2.88;;
67715;SDS011;54508;43.238;25.306;2023-11-21T03:10:00;3.07;;;2.40;;
67715;SDS011;54508;43.238;25.306;2023-11-21T03:12:25;4.00;;;2.72;;
67715;SDS011;54508;43.238;25.306;2023-11-21T03:14:51;4.97;;;3.13;;
67715;SDS011;54508;43.238;25.306;2023-11-21T03:17:16;4.10;;;3.43;;
67715;SDS011;54508;43.238;25.306;2023-11-21T03:19:42;3.53;;;3.22;;
67715;SDS011;54508;43.238;25.306;2023-11-21T03:22:07;3.90;;;3.00;;
67715;SDS011;54508;43.238;25.306;2023-11-21T03:24:33;3.67;;;2.88;;
67715;SDS011;54508;43.238;25.306;2023-11-21T03:26:59;4.27;;;3.10;;
67715;SDS011;54508;43.238;25.306;2023-11-21T03:29:25;4.68;;;3.30;;
67715;SDS011;54508;43.238;25.306;2023-11-21T03:31:50;3.23;;;2.93;;
67715;SDS011;54508;43.238;25.306;2023-11-21T03:34:24;4.27;;;3.27;;
67715;SDS011;54508;43.238;25.306;2023-11-21T03:36:53;4.35;;;3.22;;
67715;SDS011;54508;43.238;25.306;2023-11-21T03:39:21;4.50;;;3.28;;
67715;SDS011;54508;43.238;25.306;2023-11-21T03:41:47;4.83;;;3.40;;
67715;SDS011;54508;43.238;25.306;2023-11-21T03:44:13;4.40;;;3.78;;
67715;SDS011;54508;43.238;25.306;2023-11-21T03:46:39;4.07;;;3.10;;
67715;SDS011;54508;43.238;25.306;2023-11-21T03:49:04;4.03;;;3.55;;
67715;SDS011;54508;43.238;25.306;2023-11-21T03:51:29;5.93;;;3.83;;
67715;SDS011;54508;43.238;25.306;2023-11-21T03:53:55;4.63;;;3.90;;
67715;SDS011;54508;43.238;25.306;2023-11-21T03:56:20;4.97;;;3.50;;
67715;SDS011;54508;43.238;25.306;2023-11-21T03:58:48;5.20;;;4.20;;
67715;SDS011;54508;43.238;25.306;2023-11-21T04:01:23;4.57;;;4.03;;
67715;SDS011;54508;43.238;25.306;2023-11-21T04:03:49;4.63;;;3.88;;
67715;SDS011;54508;43.238;25.306;2023-11-21T04:06:15;6.85;;;4.80;;
67715;SDS011;54508;43.238;25.306;2023-11-21T04:08:42;6.30;;;4.68;;
67715;SDS011;54508;43.238;25.306;2023-11-21T04:11:11;4.97;;;3.80;;
67715;SDS011;54508;43.238;25.306;2023-11-21T04:13:37;4.60;;;4.20;;
67715;SDS011;54508;43.238;25.306;2023-11-21T04:16:04;5.65;;;4.10;;
67715;SDS011;54508;43.238;25.306;2023-11-21T04:18:31;5.05;;;4.55;;
67715;SDS011;54508;43.238;25.306;2023-11-21T04:20:56;6.30;;;4.53;;
67715;SDS011;54508;43.238;25.306;2023-11-21T04:23:22;6.00;;;4.40;;
67715;SDS011;54508;43.238;25.306;2023-11-21T04:25:47;5.20;;;4.10;;
67715;SDS011;54508;43.238;25.306;2023-11-21T04:28:12;5.37;;;4.10;;
67715;SDS011;54508;43.238;25.306;2023-11-21T04:30:38;4.97;;;4.43;;
67715;SDS011;54508;43.238;25.306;2023-11-21T04:33:04;4.38;;;3.80;;
67715;SDS011;54508;43.238;25.306;2023-11-21T04:35:30;4.93;;;4.37;;
67715;SDS011;54508;43.238;25.306;2023-11-21T04:37:55;4.50;;;4.10;;
67715;SDS011;54508;43.238;25.306;2023-11-21T04:40:22;5.40;;;4.10;;
67715;SDS011;54508;43.238;25.306;2023-11-21T04:42:48;6.05;;;4.30;;
67715;SDS011;54508;43.238;25.306;2023-11-21T04:45:13;5.03;;;4.07;;
67715;SDS011;54508;43.238;25.306;2023-11-21T04:47:38;5.70;;;4.10;;
67715;SDS011;54508;43.238;25.306;2023-11-21T04:50:04;5.13;;;4.10;;
67715;SDS011;54508;43.238;25.306;2023-11-21T04:52:31;7.00;;;4.23;;
67715;SDS011;54508;43.238;25.306;2023-11-21T04:54:57;6.75;;;4.13;;
67715;SDS011;54508;43.238;25.306;2023-11-21T04:57:23;6.55;;;4.18;;
67715;SDS011;54508;43.238;25.306;2023-11-21T04:59:49;6.00;;;3.97;;
67715;SDS011;54508;43.238;25.306;2023-11-21T05:02:15;5.03;;;4.00;;
67715;SDS011;54508;43.238;25.306;2023-11-21T05:04:41;5.25;;;4.35;;
67715;SDS011;54508;43.238;25.306;2023-11-21T05:07:07;5.75;;;4.55;;
67715;SDS011;54508;43.238;25.306;2023-11-21T05:09:33;7.00;;;4.53;;
67715;SDS011;54508;43.238;25.306;2023-11-21T05:11:59;4.90;;;3.83;;
67715;SDS011;54508;43.238;25.306;2023-11-21T05:14:25;5.23;;;4.17;;
67715;SDS011;54508;43.238;25.306;2023-11-21T05:16:50;5.60;;;3.87;;
67715;SDS011;54508;43.238;25.306;2023-11-21T05:19:16;5.80;;;4.20;;
67715;SDS011;54508;43.238;25.306;2023-11-21T05:21:42;6.13;;;4.50;;
67715;SDS011;54508;43.238;25.306;2023-11-21T05:24:08;5.47;;;4.43;;
67715;SDS011;54508;43.238;25.306;2023-11-21T05:26:33;5.50;;;4.20;;
67715;SDS011;54508;43.238;25.306;2023-11-21T05:28:59;5.57;;;4.35;;
67715;SDS011;54508;43.238;25.306;2023-11-21T05:31:24;6.23;;;4.70;;
67715;SDS011;54508;43.238;25.306;2023-11-21T05:33:50;7.37;;;4.23;;
67715;SDS011;54508;43.238;25.306;2023-11-21T05:36:15;5.30;;;4.45;;
67715;SDS011;54508;43.238;25.306;2023-11-21T05:38:41;6.20;;;4.22;;
67715;SDS011;54508;43.238;25.306;2023-11-21T05:41:06;6.00;;;3.93;;
67715;SDS011;54508;43.238;25.306;2023-11-21T05:43:33;6.07;;;4.65;;
67715;SDS011;54508;43.238;25.306;2023-11-21T05:46:00;5.05;;;4.30;;
67715;SDS011;54508;43.238;25.306;2023-11-21T05:48:26;5.43;;;3.83;;
67715;SDS011;54508;43.238;25.306;2023-11-21T05:50:52;5.30;;;4.00;;
67715;SDS011;54508;43.238;25.306;2023-11-21T05:53:17;5.33;;;4.27;;
67715;SDS011;54508;43.238;25.306;2023-11-21T05:55:43;5.90;;;4.13;;
67715;SDS011;54508;43.238;25.306;2023-11-21T05:58:08;5.23;;;3.80;;
67715;SDS011;54508;43.238;25.306;2023-11-21T06:00:34;6.10;;;4.00;;
67715;SDS011;54508;43.238;25.306;2023-11-21T06:02:59;5.70;;;4.43;;
67715;SDS011;54508;43.238;25.306;2023-11-21T06:05:25;4.60;;;3.90;;
67715;SDS011;54508;43.238;25.306;2023-11-21T06:07:51;4.78;;;4.25;;
67715;SDS011;54508;43.238;25.306;2023-11-21T06:10:23;4.77;;;3.90;;
67715;SDS011;54508;43.238;25.306;2023-11-21T06:12:49;4.57;;;3.95;;
67715;SDS011;54508;43.238;25.306;2023-11-21T06:15:15;4.87;;;4.00;;
67715;SDS011;54508;43.238;25.306;2023-11-21T06:17:41;5.75;;;4.38;;
67715;SDS011;54508;43.238;25.306;2023-11-21T06:20:08;6.93;;;4.22;;
67715;SDS011;54508;43.238;25.306;2023-11-21T06:22:39;8.25;;;4.65;;
67715;SDS011;54508;43.238;25.306;2023-11-21T06:25:05;8.32;;;5.22;;
67715;SDS011;54508;43.238;25.306;2023-11-21T06:27:32;8.68;;;5.40;;
67715;SDS011;54508;43.238;25.306;2023-11-21T06:29:59;8.32;;;4.55;;
67715;SDS011;54508;43.238;25.306;2023-11-21T06:32:24;9.37;;;4.97;;
67715;SDS011;54508;43.238;25.306;2023-11-21T06:34:51;8.88;;;5.25;;
67715;SDS011;54508;43.238;25.306;2023-11-21T06:37:19;10.45;;;5.70;;
67715;SDS011;54508;43.238;25.306;2023-11-21T06:39:46;8.98;;;5.40;;
67715;SDS011;54508;43.238;25.306;2023-11-21T06:42:11;7.07;;;5.07;;
67715;SDS011;54508;43.238;25.306;2023-11-21T06:44:37;10.87;;;5.83;;
67715;SDS011;54508;43.238;25.306;2023-11-21T06:47:02;7.55;;;5.00;;
67715;SDS011;54508;43.238;25.306;2023-11-21T06:49:28;8.37;;;5.67;;
67715;SDS011;54508;43.238;25.306;2023-11-21T06:51:54;9.57;;;6.07;;
67715;SDS011;54508;43.238;25.306;2023-11-21T06:54:20;7.15;;;5.32;;
67715;SDS011;54508;43.238;25.306;2023-11-21T06:56:46;6.75;;;6.00;;
67715;SDS011;54508;43.238;25.306;2023-11-21T06:59:12;7.88;;;6.45;;
67715;SDS011;54508;43.238;25.306;2023-11-21T09:24:37;5.93;;;4.47;;
67715;SDS011;54508;43.238;25.306;2023-11-21T09:27:03;8.23;;;5.70;;
67715;SDS011;54508;43.238;25.306;2023-11-21T09:29:30;6.28;;;5.07;;
67715;SDS011;54508;43.238;25.306;2023-11-21T09:31:56;5.32;;;4.82;;
67715;SDS011;54508;43.238;25.306;2023-11-21T09:34:24;6.38;;;4.38;;
67715;SDS011;54508;43.238;25.306;2023-11-21T09:36:50;6.93;;;5.45;;
67715;SDS011;54508;43.238;25.306;2023-11-21T09:39:16;6.47;;;4.87;;
67715;SDS011;54508;43.238;25.306;2023-11-21T09:44:13;7.18;;;4.65;;
67715;SDS011;54508;43.238;25.306;2023-11-21T09:46:42;6.03;;;3.90;;
67715;SDS011;54508;43.238;25.306;2023-11-21T09:49:11;5.85;;;4.43;;
67715;SDS011;54508;43.238;25.306;2023-11-21T09:51:42;5.13;;;4.47;;
67715;SDS011;54508;43.238;25.306;2023-11-21T09:54:08;6.95;;;4.20;;
67715;SDS011;54508;43.238;25.306;2023-11-21T09:56:36;11.35;;;4.55;;
67715;SDS011;54508;43.238;25.306;2023-11-21T09:59:03;6.60;;;4.10;;
67715;SDS011;54508;43.238;25.306;2023-11-21T10:01:32;6.93;;;4.28;;
67715;SDS011;54508;43.238;25.306;2023-11-21T10:03:58;8.43;;;4.07;;
67715;SDS011;54508;43.238;25.306;2023-11-21T10:06:24;6.15;;;4.03;;
67715;SDS011;54508;43.238;25.306;2023-11-21T10:08:52;7.28;;;3.53;;
67715;SDS011;54508;43.238;25.306;2023-11-21T10:11:21;5.32;;;3.42;;
67715;SDS011;54508;43.238;25.306;2023-11-21T10:13:50;4.77;;;3.00;;
67715;SDS011;54508;43.238;25.306;2023-11-21T10:16:22;9.63;;;3.35;;
67715;SDS011;54508;43.238;25.306;2023-11-21T10:18:51;7.57;;;3.55;;
67715;SDS011;54508;43.238;25.306;2023-11-21T10:21:18;4.95;;;3.72;;
67715;SDS011;54508;43.238;25.306;2023-11-21T10:23:43;6.67;;;3.47;;
67715;SDS011;54508;43.238;25.306;2023-11-21T10:26:09;6.53;;;4.07;;
67715;SDS011;54508;43.238;25.306;2023-11-21T10:28:41;6.70;;;3.42;;
67715;SDS011;54508;43.238;25.306;2023-11-21T10:31:30;6.10;;;3.90;;
67715;SDS011;54508;43.238;25.306;2023-11-21T10:34:11;5.03;;;3.63;;
67715;SDS011;54508;43.238;25.306;2023-11-21T10:36:43;4.28;;;3.38;;
67715;SDS011;54508;43.238;25.306;2023-11-21T10:39:09;6.33;;;4.00;;
67715;SDS011;54508;43.238;25.306;2023-11-21T10:41:35;4.90;;;3.80;;
67715;SDS011;54508;43.238;25.306;2023-11-21T10:44:01;8.37;;;4.90;;
67715;SDS011;54508;43.238;25.306;2023-11-21T10:46:32;7.88;;;5.15;;
67715;SDS011;54508;43.238;25.306;2023-11-21T10:48:58;8.57;;;5.60;;
67715;SDS011;54508;43.238;25.306;2023-11-21T10:51:25;14.23;;;6.03;;
67715;SDS011;54508;43.238;25.306;2023-11-21T10:53:53;9.43;;;6.17;;
67715;SDS011;54508;43.238;25.306;2023-11-21T10:56:19;6.40;;;5.43;;
67715;SDS011;54508;43.238;25.306;2023-11-21T10:58:48;8.93;;;6.20;;
67715;SDS011;54508;43.238;25.306;2023-11-21T11:01:14;8.10;;;6.00;;
67715;SDS011;54508;43.238;25.306;2023-11-21T11:03:43;8.20;;;6.20;;
67715;SDS011;54508;43.238;25.306;2023-11-21T11:06:09;7.05;;;5.30;;
67715;SDS011;54508;43.238;25.306;2023-11-21T11:08:36;7.15;;;5.50;;
67715;SDS011;54508;43.238;25.306;2023-11-21T11:11:02;6.05;;;5.30;;
67715;SDS011;54508;43.238;25.306;2023-11-21T11:13:29;6.00;;;4.70;;
67715;SDS011;54508;43.238;25.306;2023-11-21T11:15:57;6.97;;;5.20;;
67715;SDS011;54508;43.238;25.306;2023-11-21T11:18:29;5.20;;;4.40;;
67715;SDS011;54508;43.238;25.306;2023-11-21T11:21:07;6.28;;;5.35;;
67715;SDS011;54508;43.238;25.306;2023-11-21T11:29:41;10.82;;;5.10;;
67715;SDS011;54508;43.238;25.306;2023-11-21T11:32:37;7.65;;;4.68;;
67715;SDS011;54508;43.238;25.306;2023-11-21T11:35:16;6.68;;;4.50;;
67715;SDS011;54508;43.238;25.306;2023-11-21T11:37:44;9.18;;;5.18;;
67715;SDS011;54508;43.238;25.306;2023-11-21T11:40:13;6.18;;;4.57;;
67715;SDS011;54508;43.238;25.306;2023-11-21T11:42:38;6.90;;;4.90;;
67715;SDS011;54508;43.238;25.306;2023-11-21T11:45:19;6.72;;;4.47;;
67715;SDS011;54508;43.238;25.306;2023-11-21T11:47:44;9.45;;;5.00;;
67715;SDS011;54508;43.238;25.306;2023-11-21T11:50:12;9.43;;;4.50;;
67715;SDS011;54508;43.238;25.306;2023-11-21T11:52:42;7.93;;;4.60;;
67715;SDS011;54508;43.238;25.306;2023-11-21T11:55:15;6.03;;;3.83;;
67715;SDS011;54508;43.238;25.306;2023-11-21T11:57:46;5.25;;;4.03;;
67715;SDS011;54508;43.238;25.306;2023-11-21T12:00:21;5.05;;;3.67;;
67715;SDS011;54508;43.238;25.306;2023-11-21T12:02:53;5.72;;;4.15;;
67715;SDS011;54508;43.238;25.306;2023-11-21T12:05:25;7.68;;;4.22;;
67715;SDS011;54508;43.238;25.306;2023-11-21T12:08:00;7.70;;;4.00;;
67715;SDS011;54508;43.238;25.306;2023-11-21T12:10:27;4.60;;;3.60;;
67715;SDS011;54508;43.238;25.306;2023-11-21T12:12:55;4.88;;;3.90;;
67715;SDS011;54508;43.238;25.306;2023-11-21T12:15:22;8.68;;;4.57;;
67715;SDS011;54508;43.238;25.306;2023-11-21T12:17:48;5.60;;;3.75;;
67715;SDS011;54508;43.238;25.306;2023-11-21T12:20:16;5.47;;;3.78;;
67715;SDS011;54508;43.238;25.306;2023-11-21T12:22:45;6.43;;;3.92;;
67715;SDS011;54508;43.238;25.306;2023-11-21T12:25:13;4.23;;;3.23;;
67715;SDS011;54508;43.238;25.306;2023-11-21T12:27:44;4.63;;;3.70;;
67715;SDS011;54508;43.238;25.306;2023-11-21T12:30:14;8.85;;;4.40;;
67715;SDS011;54508;43.238;25.306;2023-11-21T12:32:41;5.18;;;4.03;;
67715;SDS011;54508;43.238;25.306;2023-11-21T12:35:10;9.55;;;4.90;;
67715;SDS011;54508;43.238;25.306;2023-11-21T12:37:37;5.30;;;3.90;;
67715;SDS011;54508;43.238;25.306;2023-11-21T12:40:04;8.02;;;4.53;;
67715;SDS011;54508;43.238;25.306;2023-11-21T12:42:36;7.55;;;5.25;;
67715;SDS011;54508;43.238;25.306;2023-11-21T12:45:07;10.93;;;5.90;;
67715;SDS011;54508;43.238;25.306;2023-11-21T12:47:46;9.13;;;5.30;;
67715;SDS011;54508;43.238;25.306;2023-11-21T12:50:18;9.40;;;5.17;;
67715;SDS011;54508;43.238;25.306;2023-11-21T12:52:48;6.50;;;5.53;;
67715;SDS011;54508;43.238;25.306;2023-11-21T12:55:15;10.48;;;7.72;;
67715;SDS011;54508;43.238;25.306;2023-11-21T12:57:42;11.52;;;7.40;;
67715;SDS011;54508;43.238;25.306;2023-11-21T13:00:08;13.77;;;7.80;;
67715;SDS011;54508;43.238;25.306;2023-11-21T13:02:40;13.97;;;6.83;;
67715;SDS011;54508;43.238;25.306;2023-11-21T13:05:08;10.52;;;7.05;;
67715;SDS011;54508;43.238;25.306;2023-11-21T19:14:39;36.27;;;27.73;;
67715;SDS011;54508;43.238;25.306;2023-11-21T19:17:05;35.05;;;27.38;;
67715;SDS011;54508;43.238;25.306;2023-11-21T19:19:30;33.20;;;26.97;;
67715;SDS011;54508;43.238;25.306;2023-11-21T19:21:55;34.15;;;28.02;;
67715;SDS011;54508;43.238;25.306;2023-11-21T19:24:21;34.70;;;28.80;;
67715;SDS011;54508;43.238;25.306;2023-11-21T19:26:46;36.90;;;29.17;;
67715;SDS011;54508;43.238;25.306;2023-11-21T19:29:12;33.63;;;27.20;;
67715;SDS011;54508;43.238;25.306;2023-11-21T19:31:37;31.98;;;26.17;;
67715;SDS011;54508;43.238;25.306;2023-11-21T19:34:03;35.17;;;27.90;;
67715;SDS011;54508;43.238;25.306;2023-11-21T19:36:29;35.30;;;27.92;;
67715;SDS011;54508;43.238;25.306;2023-11-21T19:38:55;33.60;;;27.10;;
67715;SDS011;54508;43.238;25.306;2023-11-21T19:41:21;30.40;;;25.50;;
67715;SDS011;54508;43.238;25.306;2023-11-21T19:43:47;33.05;;;27.08;;
67715;SDS011;54508;43.238;25.306;2023-11-21T19:46:14;34.58;;;27.15;;
67715;SDS011;54508;43.238;25.306;2023-11-21T19:48:40;31.85;;;26.23;;
67715;SDS011;54508;43.238;25.306;2023-11-21T19:51:07;35.50;;;28.20;;
67715;SDS011;54508;43.238;25.306;2023-11-21T19:53:33;33.73;;;27.60;;
67715;SDS011;54508;43.238;25.306;2023-11-21T19:56:02;33.00;;;25.77;;
67715;SDS011;54508;43.238;25.306;2023-11-21T19:58:28;34.63;;;26.90;;
67715;SDS011;54508;43.238;25.306;2023-11-21T20:00:54;33.65;;;26.42;;
67715;SDS011;54508;43.238;25.306;2023-11-21T20:03:20;35.40;;;26.80;;
67715;SDS011;54508;43.238;25.306;2023-11-21T20:05:46;31.27;;;25.25;;
67715;SDS011;54508;43.238;25.306;2023-11-21T20:08:12;30.67;;;24.45;;
67715;SDS011;54508;43.238;25.306;2023-11-21T20:10:40;29.98;;;25.63;;
67715;SDS011;54508;43.238;25.306;2023-11-21T20:13:05;33.50;;;25.95;;
67715;SDS011;54508;43.238;25.306;2023-11-21T20:15:32;31.50;;;25.90;;
67715;SDS011;54508;43.238;25.306;2023-11-21T20:17:58;31.52;;;26.05;;
67715;SDS011;54508;43.238;25.306;2023-11-21T20:20:23;32.37;;;26.30;;
67715;SDS011;54508;43.238;25.306;2023-11-21T20:22:48;35.15;;;26.10;;
67715;SDS011;54508;43.238;25.306;2023-11-21T20:25:15;30.43;;;24.67;;
67715;SDS011;54508;43.238;25.306;2023-11-21T20:27:43;29.23;;;23.08;;
67715;SDS011;54508;43.238;25.306;2023-11-21T20:30:09;32.47;;;25.98;;
67715;SDS011;54508;43.238;25.306;2023-11-21T20:32:35;31.83;;;24.95;;
67715;SDS011;54508;43.238;25.306;2023-11-21T20:35:01;31.48;;;23.67;;
67715;SDS011;54508;43.238;25.306;2023-11-21T20:37:27;32.65;;;24.85;;
67715;SDS011;54508;43.238;25.306;2023-11-21T20:39:53;23.77;;;21.20;;
67715;SDS011;54508;43.238;25.306;2023-11-21T20:42:18;27.95;;;22.42;;
67715;SDS011;54508;43.238;25.306;2023-11-21T20:44:44;28.65;;;22.40;;
67715;SDS011;54508;43.238;25.306;2023-11-21T20:47:09;29.40;;;23.47;;
67715;SDS011;54508;43.238;25.306;2023-11-21T20:49:35;30.50;;;23.77;;
67715;SDS011;54508;43.238;25.306;2023-11-21T20:52:00;29.05;;;22.45;;
67715;SDS011;54508;43.238;25.306;2023-11-21T20:54:26;27.37;;;22.90;;
67715;SDS011;54508;43.238;25.306;2023-11-21T20:56:52;28.25;;;23.02;;
67715;SDS011;54508;43.238;25.306;2023-11-21T20:59:17;25.67;;;20.47;;
67715;SDS011;54508;43.238;25.306;2023-11-21T21:01:43;28.03;;;22.43;;
67715;SDS011;54508;43.238;25.306;2023-11-21T21:04:09;24.88;;;20.50;;
67715;SDS011;54508;43.238;25.306;2023-11-21T21:06:37;26.15;;;21.00;;
67715;SDS011;54508;43.238;25.306;2023-11-21T21:09:02;27.42;;;21.45;;
67715;SDS011;54508;43.238;25.306;2023-11-21T21:11:28;25.50;;;21.20;;
67715;SDS011;54508;43.238;25.306;2023-11-21T21:13:57;26.70;;;21.60;;
67715;SDS011;54508;43.238;25.306;2023-11-21T21:16:25;25.50;;;21.17;;
67715;SDS011;54508;43.238;25.306;2023-11-21T21:18:57;25.07;;;20.53;;
67715;SDS011;54508;43.238;25.306;2023-11-21T21:21:24;26.58;;;20.65;;
67715;SDS011;54508;43.238;25.306;2023-11-21T21:23:50;22.75;;;18.95;;
67715;SDS011;54508;43.238;25.306;2023-11-21T21:26:20;24.55;;;19.88;;
67715;SDS011;54508;43.238;25.306;2023-11-21T21:28:46;23.50;;;19.85;;
67715;SDS011;54508;43.238;25.306;2023-11-21T21:31:12;24.00;;;19.38;;
67715;SDS011;54508;43.238;25.306;2023-11-21T21:33:38;24.63;;;19.90;;
67715;SDS011;54508;43.238;25.306;2023-11-21T21:36:03;20.70;;;18.30;;
67715;SDS011;54508;43.238;25.306;2023-11-21T21:38:30;25.67;;;19.15;;
67715;SDS011;54508;43.238;25.306;2023-11-21T21:40:56;26.55;;;19.67;;
67715;SDS011;54508;43.238;25.306;2023-11-21T21:43:23;26.48;;;19.58;;
67715;SDS011;54508;43.238;25.306;2023-11-21T21:45:49;27.67;;;21.27;;
67715;SDS011;54508;43.238;25.306;2023-11-21T21:48:15;22.30;;;18.30;;
67715;SDS011;54508;43.238;25.306;2023-11-21T21:50:40;22.30;;;18.87;;
67715;SDS011;54508;43.238;25.306;2023-11-21T21:53:05;26.30;;;20.13;;
67715;SDS011;54508;43.238;25.306;2023-11-21T21:55:35;24.67;;;19.02;;
67715;SDS011;54508;43.238;25.306;2023-11-21T21:58:01;25.73;;;20.20;;
67715;SDS011;54508;43.238;25.306;2023-11-21T22:00:26;25.98;;;19.25;;
67715;SDS011;54508;43.238;25.306;2023-11-21T22:02:52;25.33;;;20.02;;
67715;SDS011;54508;43.238;25.306;2023-11-21T22:05:18;27.23;;;20.73;;
67715;SDS011;54508;43.238;25.306;2023-11-21T22:07:43;24.87;;;19.60;;
67715;SDS011;54508;43.238;25.306;2023-11-21T22:10:09;23.27;;;18.13;;
67715;SDS011;54508;43.238;25.306;2023-11-21T22:12:35;28.15;;;21.30;;
67715;SDS011;54508;43.238;25.306;2023-11-21T22:15:00;26.07;;;20.80;;
67715;SDS011;54508;43.238;25.306;2023-11-21T22:17:26;25.92;;;20.02;;
67715;SDS011;54508;43.238;25.306;2023-11-21T22:19:53;27.20;;;21.20;;
67715;SDS011;54508;43.238;25.306;2023-11-21T22:22:19;27.42;;;21.63;;
67715;SDS011;54508;43.238;25.306;2023-11-21T22:24:44;27.60;;;21.25;;
67715;SDS011;54508;43.238;25.306;2023-11-21T22:27:10;25.98;;;20.45;;
67715;SDS011;54508;43.238;25.306;2023-11-21T22:29:36;25.80;;;18.93;;
67715;SDS011;54508;43.238;25.306;2023-11-21T22:32:02;25.08;;;19.35;;
67715;SDS011;54508;43.238;25.306;2023-11-21T22:34:30;26.20;;;19.55;;
67715;SDS011;54508;43.238;25.306;2023-11-21T22:36:55;23.05;;;18.63;;
67715;SDS011;54508;43.238;25.306;2023-11-21T22:39:21;25.37;;;19.43;;
67715;SDS011;54508;43.238;25.306;2023-11-21T22:41:46;23.15;;;18.65;;
67715;SDS011;54508;43.238;25.306;2023-11-21T22:44:13;23.43;;;19.07;;
67715;SDS011;54508;43.238;25.306;2023-11-21T22:46:41;24.77;;;19.52;;
67715;SDS011;54508;43.238;25.306;2023-11-21T22:49:07;24.77;;;19.63;;
67715;SDS011;54508;43.238;25.306;2023-11-21T22:51:34;24.30;;;18.50;;
67715;SDS011;54508;43.238;25.306;2023-11-21T22:54:00;22.63;;;18.27;;
67715;SDS011;54508;43.238;25.306;2023-11-21T22:56:25;26.97;;;18.93;;
67715;SDS011;54508;43.238;25.306;2023-11-21T22:58:51;22.48;;;18.13;;
67715;SDS011;54508;43.238;25.306;2023-11-21T23:01:17;24.27;;;18.43;;
67715;SDS011;54508;43.238;25.306;2023-11-21T23:03:44;22.10;;;18.05;;